sensor_id;sensor_type;location;lat;lon;timestamp;temperature;humidity
5476;DHT22;2760;50.000;9.194;2024-02-21T00:00:32;8.90;99.90
5476;DHT22;2760;50.000;9.194;2024-02-21T00:02:59;9.80;99.90
5476;DHT22;2760;50.000;9.194;2024-02-21T00:05:27;9.20;99.90
5476;DHT22;2760;50.000;9.194;2024-02-21T00:07:55;9.90;99.90
5476;DHT22;2760;50.000;9.194;2024-02-21T00:10:24;10.50;99.90
5476;DHT22;2760;50.000;9.194;2024-02-21T00:12:52;8.50;99.90
5476;DHT22;2760;50.000;9.194;2024-02-21T00:15:19;7.00;99.90
5476;DHT22;2760;50.000;9.194;2024-02-21T00:17:47;8.90;99.90
5476;DHT22;2760;50.000;9.194;2024-02-21T00:20:14;8.70;99.90
5476;DHT22;2760;50.000;9.194;2024-02-21T00:22:41;9.70;99.90
5476;DHT22;2760;50.000;9.194;2024-02-21T00:25:09;10.70;99.90
5476;DHT22;2760;50.000;9.194;2024-02-21T00:27:36;9.00;99.90
5476;DHT22;2760;50.000;9.194;2024-02-21T00:30:05;10.70;99.90
5476;DHT22;2760;50.000;9.194;2024-02-21T00:32:33;8.90;99.90
5476;DHT22;2760;50.000;9.194;2024-02-21T00:35:01;11.10;99.90
5476;DHT22;2760;50.000;9.194;2024-02-21T00:37:28;8.90;99.90
5476;DHT22;2760;50.000;9.194;2024-02-21T00:39:55;10.40;99.90
5476;DHT22;2760;50.000;9.194;2024-02-21T00:42:22;7.90;99.90
5476;DHT22;2760;50.000;9.194;2024-02-21T00:44:50;9.00;99.90
5476;DHT22;2760;50.000;9.194;2024-02-21T00:47:18;10.30;99.90
5476;DHT22;2760;50.000;9.194;2024-02-21T00:49:46;10.40;99.90
5476;DHT22;2760;50.000;9.194;2024-02-21T00:52:13;10.80;99.90
5476;DHT22;2760;50.000;9.194;2024-02-21T00:54:40;9.20;99.90
5476;DHT22;2760;50.000;9.194;2024-02-21T00:57:07;8.70;99.90
5476;DHT22;2760;50.000;9.194;2024-02-21T00:59:34;9.50;99.90
5476;DHT22;2760;50.000;9.194;2024-02-21T01:02:01;9.30;99.90
5476;DHT22;2760;50.000;9.194;2024-02-21T01:04:30;10.40;99.90
5476;DHT22;2760;50.000;9.194;2024-02-21T01:06:57;10.60;99.90
5476;DHT22;2760;50.000;9.194;2024-02-21T01:09:24;10.90;99.90
5476;DHT22;2760;50.000;9.194;2024-02-21T01:11:51;10.80;99.90
5476;DHT22;2760;50.000;9.194;2024-02-21T01:14:18;9.90;99.90
5476;DHT22;2760;50.000;9.194;2024-02-21T01:16:47;10.20;99.90
5476;DHT22;2760;50.000;9.194;2024-02-21T01:19:14;11.00;99.90
5476;DHT22;2760;50.000;9.194;2024-02-21T01:21:43;8.90;99.90
5476;DHT22;2760;50.000;9.194;2024-02-21T01:24:10;10.80;99.90
5476;DHT22;2760;50.000;9.194;2024-02-21T01:26:37;10.70;99.90
5476;DHT22;2760;50.000;9.194;2024-02-21T01:29:06;8.70;99.90
5476;DHT22;2760;50.000;9.194;2024-02-21T01:31:33;8.10;99.90
5476;DHT22;2760;50.000;9.194;2024-02-21T01:34:00;10.10;99.90
5476;DHT22;2760;50.000;9.194;2024-02-21T01:36:28;7.50;99.90
5476;DHT22;2760;50.000;9.194;2024-02-21T01:38:56;10.50;99.90
5476;DHT22;2760;50.000;9.194;2024-02-21T01:41:24;8.60;99.90
5476;DHT22;2760;50.000;9.194;2024-02-21T01:43:56;9.20;99.90
5476;DHT22;2760;50.000;9.194;2024-02-21T01:46:23;8.50;99.90
5476;DHT22;2760;50.000;9.194;2024-02-21T01:48:53;10.60;99.90
5476;DHT22;2760;50.000;9.194;2024-02-21T01:51:21;8.50;99.90
5476;DHT22;2760;50.000;9.194;2024-02-21T01:53:51;9.40;99.90
5476;DHT22;2760;50.000;9.194;2024-02-21T01:56:20;9.30;99.90
5476;DHT22;2760;50.000;9.194;2024-02-21T01:58:48;10.00;99.90
5476;DHT22;2760;50.000;9.194;2024-02-21T02:01:16;10.30;99.90
5476;DHT22;2760;50.000;9.194;2024-02-21T02:03:45;8.30;99.90
5476;DHT22;2760;50.000;9.194;2024-02-21T02:06:13;9.50;99.90
5476;DHT22;2760;50.000;9.194;2024-02-21T02:08:42;8.00;99.90
5476;DHT22;2760;50.000;9.194;2024-02-21T02:11:09;8.40;99.90
5476;DHT22;2760;50.000;9.194;2024-02-21T02:13:38;8.90;99.90
5476;DHT22;2760;50.000;9.194;2024-02-21T02:16:06;8.90;99.90
5476;DHT22;2760;50.000;9.194;2024-02-21T02:18:33;8.00;99.90
5476;DHT22;2760;50.000;9.194;2024-02-21T02:21:00;9.10;99.90
5476;DHT22;2760;50.000;9.194;2024-02-21T02:23:29;9.20;99.90
5476;DHT22;2760;50.000;9.194;2024-02-21T02:25:57;6.90;99.90
5476;DHT22;2760;50.000;9.194;2024-02-21T02:28:26;9.10;99.90
5476;DHT22;2760;50.000;9.194;2024-02-21T02:30:53;9.70;99.90
5476;DHT22;2760;50.000;9.194;2024-02-21T02:33:20;7.80;99.90
5476;DHT22;2760;50.000;9.194;2024-02-21T02:35:48;7.70;99.90
5476;DHT22;2760;50.000;9.194;2024-02-21T02:38:15;7.80;99.90
5476;DHT22;2760;50.000;9.194;2024-02-21T02:40:45;7.70;99.90
5476;DHT22;2760;50.000;9.194;2024-02-21T02:43:12;9.10;99.90
5476;DHT22;2760;50.000;9.194;2024-02-21T02:45:39;7.70;99.90
5476;DHT22;2760;50.000;9.194;2024-02-21T02:48:07;9.50;99.90
5476;DHT22;2760;50.000;9.194;2024-02-21T02:50:34;7.80;99.90
5476;DHT22;2760;50.000;9.194;2024-02-21T02:53:02;7.80;99.90
5476;DHT22;2760;50.000;9.194;2024-02-21T02:55:29;7.80;99.90
5476;DHT22;2760;50.000;9.194;2024-02-21T02:57:59;8.60;99.90
5476;DHT22;2760;50.000;9.194;2024-02-21T03:00:26;7.90;99.90
5476;DHT22;2760;50.000;9.194;2024-02-21T03:02:53;8.60;99.90
5476;DHT22;2760;50.000;9.194;2024-02-21T03:05:21;8.60;99.90
5476;DHT22;2760;50.000;9.194;2024-02-21T03:07:49;9.20;99.90
5476;DHT22;2760;50.000;9.194;2024-02-21T03:10:16;9.50;99.90
5476;DHT22;2760;50.000;9.194;2024-02-21T03:12:44;9.00;99.90
5476;DHT22;2760;50.000;9.194;2024-02-21T03:15:13;8.70;99.90
5476;DHT22;2760;50.000;9.194;2024-02-21T03:17:40;7.90;99.90
5476;DHT22;2760;50.000;9.194;2024-02-21T03:20:09;7.60;99.90
5476;DHT22;2760;50.000;9.194;2024-02-21T03:22:36;7.50;99.90
5476;DHT22;2760;50.000;9.194;2024-02-21T03:25:03;9.40;99.90
5476;DHT22;2760;50.000;9.194;2024-02-21T03:27:31;7.50;99.90
5476;DHT22;2760;50.000;9.194;2024-02-21T03:32:42;8.30;99.90
5476;DHT22;2760;50.000;9.194;2024-02-21T03:35:09;7.60;99.90
5476;DHT22;2760;50.000;9.194;2024-02-21T03:37:36;8.40;99.90
5476;DHT22;2760;50.000;9.194;2024-02-21T03:40:07;6.90;99.90
5476;DHT22;2760;50.000;9.194;2024-02-21T03:42:35;5.90;99.90
5476;DHT22;2760;50.000;9.194;2024-02-21T03:45:02;8.40;99.90
5476;DHT22;2760;50.000;9.194;2024-02-21T03:47:29;7.40;99.90
5476;DHT22;2760;50.000;9.194;2024-02-21T03:49:58;8.10;99.90
5476;DHT22;2760;50.000;9.194;2024-02-21T03:52:26;7.60;99.90
5476;DHT22;2760;50.000;9.194;2024-02-21T03:54:53;9.20;99.90
5476;DHT22;2760;50.000;9.194;2024-02-21T03:57:23;7.60;99.90
5476;DHT22;2760;50.000;9.194;2024-02-21T03:59:52;7.70;99.90
5476;DHT22;2760;50.000;9.194;2024-02-21T04:02:19;5.70;99.90
5476;DHT22;2760;50.000;9.194;2024-02-21T04:04:46;8.50;99.90
5476;DHT22;2760;50.000;9.194;2024-02-21T04:07:16;8.20;99.90
5476;DHT22;2760;50.000;9.194;2024-02-21T04:09:45;8.10;99.90
5476;DHT22;2760;50.000;9.194;2024-02-21T04:12:12;7.40;99.90
5476;DHT22;2760;50.000;9.194;2024-02-21T04:14:40;8.70;99.90
5476;DHT22;2760;50.000;9.194;2024-02-21T04:17:07;7.40;99.90
5476;DHT22;2760;50.000;9.194;2024-02-21T04:19:34;7.90;99.90
5476;DHT22;2760;50.000;9.194;2024-02-21T04:22:01;8.70;99.90
5476;DHT22;2760;50.000;9.194;2024-02-21T04:24:32;7.50;99.90
5476;DHT22;2760;50.000;9.194;2024-02-21T04:26:59;9.50;99.90
5476;DHT22;2760;50.000;9.194;2024-02-21T04:29:26;7.40;99.90
5476;DHT22;2760;50.000;9.194;2024-02-21T04:31:55;8.30;99.90
5476;DHT22;2760;50.000;9.194;2024-02-21T04:34:24;7.20;99.90
5476;DHT22;2760;50.000;9.194;2024-02-21T04:36:52;9.70;99.90
5476;DHT22;2760;50.000;9.194;2024-02-21T04:39:19;7.60;99.90
5476;DHT22;2760;50.000;9.194;2024-02-21T04:41:48;8.80;99.90
5476;DHT22;2760;50.000;9.194;2024-02-21T04:44:15;8.20;99.90
5476;DHT22;2760;50.000;9.194;2024-02-21T04:46:42;7.90;99.90
5476;DHT22;2760;50.000;9.194;2024-02-21T04:49:10;8.80;99.90
5476;DHT22;2760;50.000;9.194;2024-02-21T04:51:37;7.70;99.90
5476;DHT22;2760;50.000;9.194;2024-02-21T04:54:06;8.50;99.90
5476;DHT22;2760;50.000;9.194;2024-02-21T04:56:34;9.80;99.90
5476;DHT22;2760;50.000;9.194;2024-02-21T04:59:02;9.30;99.90
5476;DHT22;2760;50.000;9.194;2024-02-21T05:01:30;8.90;99.90
5476;DHT22;2760;50.000;9.194;2024-02-21T05:03:57;9.10;99.90
5476;DHT22;2760;50.000;9.194;2024-02-21T05:06:24;6.50;99.90
5476;DHT22;2760;50.000;9.194;2024-02-21T05:08:51;9.00;99.90
5476;DHT22;2760;50.000;9.194;2024-02-21T05:11:18;9.80;99.90
5476;DHT22;2760;50.000;9.194;2024-02-21T05:13:46;7.70;99.90
5476;DHT22;2760;50.000;9.194;2024-02-21T05:16:14;7.10;99.90
5476;DHT22;2760;50.000;9.194;2024-02-21T05:18:42;9.00;99.90
5476;DHT22;2760;50.000;9.194;2024-02-21T05:21:09;9.90;99.90
5476;DHT22;2760;50.000;9.194;2024-02-21T05:23:36;8.30;99.90
5476;DHT22;2760;50.000;9.194;2024-02-21T05:26:05;8.10;99.90
5476;DHT22;2760;50.000;9.194;2024-02-21T05:28:32;8.90;99.90
5476;DHT22;2760;50.000;9.194;2024-02-21T05:30:59;7.60;99.90
5476;DHT22;2760;50.000;9.194;2024-02-21T05:33:28;6.10;99.90
5476;DHT22;2760;50.000;9.194;2024-02-21T05:35:55;7.90;99.90
5476;DHT22;2760;50.000;9.194;2024-02-21T05:38:25;5.70;99.90
5476;DHT22;2760;50.000;9.194;2024-02-21T05:40:55;9.50;99.90
5476;DHT22;2760;50.000;9.194;2024-02-21T05:43:23;9.20;99.90
5476;DHT22;2760;50.000;9.194;2024-02-21T05:45:54;6.10;99.90
5476;DHT22;2760;50.000;9.194;2024-02-21T05:48:22;8.50;99.90
5476;DHT22;2760;50.000;9.194;2024-02-21T05:50:52;8.40;99.90
5476;DHT22;2760;50.000;9.194;2024-02-21T05:53:21;8.90;99.90
5476;DHT22;2760;50.000;9.194;2024-02-21T05:55:48;7.60;99.90
5476;DHT22;2760;50.000;9.194;2024-02-21T05:58:16;5.10;99.90
5476;DHT22;2760;50.000;9.194;2024-02-21T06:00:45;5.40;99.90
5476;DHT22;2760;50.000;9.194;2024-02-21T06:03:13;8.00;99.90
5476;DHT22;2760;50.000;9.194;2024-02-21T06:05:40;9.00;99.90
5476;DHT22;2760;50.000;9.194;2024-02-21T06:08:10;8.60;99.90
5476;DHT22;2760;50.000;9.194;2024-02-21T06:10:40;5.70;99.90
5476;DHT22;2760;50.000;9.194;2024-02-21T06:13:09;8.00;99.90
5476;DHT22;2760;50.000;9.194;2024-02-21T06:15:39;7.10;99.90
5476;DHT22;2760;50.000;9.194;2024-02-21T06:18:09;7.20;99.90
5476;DHT22;2760;50.000;9.194;2024-02-21T06:20:50;7.30;99.90
5476;DHT22;2760;50.000;9.194;2024-02-21T06:23:22;7.10;99.90
5476;DHT22;2760;50.000;9.194;2024-02-21T06:25:50;8.80;99.90
5476;DHT22;2760;50.000;9.194;2024-02-21T06:28:19;7.50;99.90
5476;DHT22;2760;50.000;9.194;2024-02-21T06:30:46;5.90;99.90
5476;DHT22;2760;50.000;9.194;2024-02-21T06:33:16;8.30;99.90
5476;DHT22;2760;50.000;9.194;2024-02-21T06:35:43;7.40;99.90
5476;DHT22;2760;50.000;9.194;2024-02-21T06:38:13;8.80;99.90
5476;DHT22;2760;50.000;9.194;2024-02-21T06:40:46;8.00;99.90
5476;DHT22;2760;50.000;9.194;2024-02-21T06:43:24;8.70;99.90
5476;DHT22;2760;50.000;9.194;2024-02-21T06:45:51;8.50;99.90
5476;DHT22;2760;50.000;9.194;2024-02-21T06:48:20;7.40;99.90
5476;DHT22;2760;50.000;9.194;2024-02-21T06:50:51;7.80;99.90
5476;DHT22;2760;50.000;9.194;2024-02-21T06:53:22;6.70;99.90
5476;DHT22;2760;50.000;9.194;2024-02-21T06:55:51;8.40;99.90
5476;DHT22;2760;50.000;9.194;2024-02-21T06:58:18;9.20;99.90
5476;DHT22;2760;50.000;9.194;2024-02-21T07:00:46;7.50;99.90
5476;DHT22;2760;50.000;9.194;2024-02-21T07:03:16;9.40;99.90
5476;DHT22;2760;50.000;9.194;2024-02-21T07:05:43;9.30;99.90
5476;DHT22;2760;50.000;9.194;2024-02-21T07:08:11;7.60;99.90
5476;DHT22;2760;50.000;9.194;2024-02-21T07:10:38;7.60;99.90
5476;DHT22;2760;50.000;9.194;2024-02-21T07:13:07;8.10;99.90
5476;DHT22;2760;50.000;9.194;2024-02-21T07:15:36;8.50;99.90
5476;DHT22;2760;50.000;9.194;2024-02-21T07:18:04;9.60;99.90
5476;DHT22;2760;50.000;9.194;2024-02-21T07:20:31;8.20;99.90
5476;DHT22;2760;50.000;9.194;2024-02-21T07:22:59;9.20;99.90
5476;DHT22;2760;50.000;9.194;2024-02-21T07:25:26;7.90;99.90
5476;DHT22;2760;50.000;9.194;2024-02-21T07:27:54;9.90;99.90
5476;DHT22;2760;50.000;9.194;2024-02-21T07:30:22;8.60;99.90
5476;DHT22;2760;50.000;9.194;2024-02-21T07:32:50;8.40;99.90
5476;DHT22;2760;50.000;9.194;2024-02-21T07:35:18;8.50;99.90
5476;DHT22;2760;50.000;9.194;2024-02-21T07:37:45;7.90;99.90
5476;DHT22;2760;50.000;9.194;2024-02-21T07:40:13;8.10;99.90
5476;DHT22;2760;50.000;9.194;2024-02-21T07:42:40;6.70;99.90
5476;DHT22;2760;50.000;9.194;2024-02-21T07:45:08;7.20;99.90
5476;DHT22;2760;50.000;9.194;2024-02-21T07:47:38;8.90;99.90
5476;DHT22;2760;50.000;9.194;2024-02-21T07:50:06;8.10;99.90
5476;DHT22;2760;50.000;9.194;2024-02-21T07:52:34;8.10;99.90
5476;DHT22;2760;50.000;9.194;2024-02-21T07:55:01;9.90;99.90
5476;DHT22;2760;50.000;9.194;2024-02-21T07:57:29;8.20;99.90
5476;DHT22;2760;50.000;9.194;2024-02-21T07:59:56;10.40;99.90
5476;DHT22;2760;50.000;9.194;2024-02-21T08:02:23;10.60;99.90
5476;DHT22;2760;50.000;9.194;2024-02-21T08:04:52;7.10;99.90
5476;DHT22;2760;50.000;9.194;2024-02-21T08:07:20;8.60;99.90
5476;DHT22;2760;50.000;9.194;2024-02-21T08:09:49;8.70;99.90
5476;DHT22;2760;50.000;9.194;2024-02-21T08:12:20;7.70;99.90
5476;DHT22;2760;50.000;9.194;2024-02-21T08:14:47;9.00;99.90
5476;DHT22;2760;50.000;9.194;2024-02-21T08:17:15;10.80;99.90
5476;DHT22;2760;50.000;9.194;2024-02-21T08:19:43;9.70;99.90
5476;DHT22;2760;50.000;9.194;2024-02-21T08:22:12;9.10;99.90
5476;DHT22;2760;50.000;9.194;2024-02-21T08:24:40;9.70;99.90
5476;DHT22;2760;50.000;9.194;2024-02-21T08:27:09;10.00;99.90
5476;DHT22;2760;50.000;9.194;2024-02-21T08:29:38;9.00;99.90
5476;DHT22;2760;50.000;9.194;2024-02-21T08:32:06;9.60;99.90
5476;DHT22;2760;50.000;9.194;2024-02-21T08:34:38;9.60;99.90
5476;DHT22;2760;50.000;9.194;2024-02-21T08:37:06;10.00;99.90
5476;DHT22;2760;50.000;9.194;2024-02-21T08:39:38;11.00;99.90
5476;DHT22;2760;50.000;9.194;2024-02-21T08:42:06;9.30;99.90
5476;DHT22;2760;50.000;9.194;2024-02-21T08:44:33;11.40;99.90
5476;DHT22;2760;50.000;9.194;2024-02-21T08:47:01;8.60;99.90
5476;DHT22;2760;50.000;9.194;2024-02-21T08:49:29;8.70;99.90
5476;DHT22;2760;50.000;9.194;2024-02-21T08:51:57;11.10;99.90
5476;DHT22;2760;50.000;9.194;2024-02-21T08:54:26;9.70;99.90
5476;DHT22;2760;50.000;9.194;2024-02-21T08:56:55;7.90;99.90
5476;DHT22;2760;50.000;9.194;2024-02-21T08:59:23;9.80;99.90
5476;DHT22;2760;50.000;9.194;2024-02-21T09:01:51;9.90;99.90
5476;DHT22;2760;50.000;9.194;2024-02-21T09:04:19;11.50;99.90
5476;DHT22;2760;50.000;9.194;2024-02-21T09:06:47;10.60;99.90
5476;DHT22;2760;50.000;9.194;2024-02-21T09:09:14;11.70;99.90
5476;DHT22;2760;50.000;9.194;2024-02-21T09:11:41;9.80;99.90
5476;DHT22;2760;50.000;9.194;2024-02-21T09:14:12;10.80;99.90
5476;DHT22;2760;50.000;9.194;2024-02-21T09:16:39;10.40;99.90
5476;DHT22;2760;50.000;9.194;2024-02-21T09:19:06;9.90;99.90
5476;DHT22;2760;50.000;9.194;2024-02-21T09:21:36;12.20;99.90
5476;DHT22;2760;50.000;9.194;2024-02-21T09:24:05;11.10;99.90
5476;DHT22;2760;50.000;9.194;2024-02-21T09:26:32;10.00;99.90
5476;DHT22;2760;50.000;9.194;2024-02-21T09:28:59;10.40;99.90
5476;DHT22;2760;50.000;9.194;2024-02-21T09:31:29;11.10;99.90
5476;DHT22;2760;50.000;9.194;2024-02-21T09:33:56;12.00;99.90
5476;DHT22;2760;50.000;9.194;2024-02-21T09:36:23;10.50;99.90
5476;DHT22;2760;50.000;9.194;2024-02-21T09:38:50;12.10;99.90
5476;DHT22;2760;50.000;9.194;2024-02-21T09:41:19;12.70;99.90
5476;DHT22;2760;50.000;9.194;2024-02-21T09:43:50;10.60;99.90
5476;DHT22;2760;50.000;9.194;2024-02-21T09:46:21;10.70;99.90
5476;DHT22;2760;50.000;9.194;2024-02-21T09:49:07;10.50;99.90
5476;DHT22;2760;50.000;9.194;2024-02-21T09:51:40;11.70;99.90
5476;DHT22;2760;50.000;9.194;2024-02-21T09:54:09;10.70;99.90
5476;DHT22;2760;50.000;9.194;2024-02-21T09:56:36;10.70;99.90
5476;DHT22;2760;50.000;9.194;2024-02-21T09:59:04;11.60;99.90
5476;DHT22;2760;50.000;9.194;2024-02-21T10:01:32;11.80;99.90
5476;DHT22;2760;50.000;9.194;2024-02-21T10:04:02;11.80;99.90
5476;DHT22;2760;50.000;9.194;2024-02-21T10:06:30;10.40;99.90
5476;DHT22;2760;50.000;9.194;2024-02-21T10:08:58;10.40;99.90
5476;DHT22;2760;50.000;9.194;2024-02-21T10:11:28;10.60;99.90
5476;DHT22;2760;50.000;9.194;2024-02-21T10:14:03;11.50;99.90
5476;DHT22;2760;50.000;9.194;2024-02-21T10:16:31;9.90;99.90
5476;DHT22;2760;50.000;9.194;2024-02-21T10:19:00;11.30;99.90
5476;DHT22;2760;50.000;9.194;2024-02-21T10:21:29;10.50;99.90
5476;DHT22;2760;50.000;9.194;2024-02-21T10:24:10;12.50;99.90
5476;DHT22;2760;50.000;9.194;2024-02-21T10:26:38;12.20;99.90
5476;DHT22;2760;50.000;9.194;2024-02-21T10:29:05;11.30;99.90
5476;DHT22;2760;50.000;9.194;2024-02-21T10:31:32;9.60;99.90
5476;DHT22;2760;50.000;9.194;2024-02-21T10:34:02;13.00;99.90
5476;DHT22;2760;50.000;9.194;2024-02-21T10:36:30;11.50;99.90
5476;DHT22;2760;50.000;9.194;2024-02-21T10:38:58;10.10;99.90
5476;DHT22;2760;50.000;9.194;2024-02-21T10:41:28;12.70;99.90
5476;DHT22;2760;50.000;9.194;2024-02-21T10:43:57;12.10;99.90
5476;DHT22;2760;50.000;9.194;2024-02-21T10:46:27;12.00;99.90
5476;DHT22;2760;50.000;9.194;2024-02-21T10:49:04;12.20;99.90
5476;DHT22;2760;50.000;9.194;2024-02-21T10:51:34;12.40;99.90
5476;DHT22;2760;50.000;9.194;2024-02-21T10:54:13;12.20;99.90
5476;DHT22;2760;50.000;9.194;2024-02-21T10:56:43;12.00;99.90
5476;DHT22;2760;50.000;9.194;2024-02-21T10:59:13;12.30;99.90
5476;DHT22;2760;50.000;9.194;2024-02-21T11:01:40;12.50;99.90
5476;DHT22;2760;50.000;9.194;2024-02-21T11:04:10;13.30;99.90
5476;DHT22;2760;50.000;9.194;2024-02-21T11:06:39;12.60;99.90
5476;DHT22;2760;50.000;9.194;2024-02-21T11:09:07;13.60;99.90
5476;DHT22;2760;50.000;9.194;2024-02-21T11:11:35;14.10;99.90
5476;DHT22;2760;50.000;9.194;2024-02-21T11:14:07;12.80;99.90
5476;DHT22;2760;50.000;9.194;2024-02-21T11:16:36;12.90;99.90
5476;DHT22;2760;50.000;9.194;2024-02-21T11:19:22;13.00;99.90
5476;DHT22;2760;50.000;9.194;2024-02-21T11:21:50;14.90;99.90
5476;DHT22;2760;50.000;9.194;2024-02-21T11:24:26;12.70;99.90
5476;DHT22;2760;50.000;9.194;2024-02-21T11:26:54;15.00;99.90
5476;DHT22;2760;50.000;9.194;2024-02-21T11:29:24;13.10;99.90
5476;DHT22;2760;50.000;9.194;2024-02-21T11:31:52;13.80;99.90
5476;DHT22;2760;50.000;9.194;2024-02-21T11:34:19;13.00;99.90
5476;DHT22;2760;50.000;9.194;2024-02-21T11:36:55;12.30;99.90
5476;DHT22;2760;50.000;9.194;2024-02-21T11:39:23;13.70;99.90
5476;DHT22;2760;50.000;9.194;2024-02-21T11:42:01;13.80;99.90
5476;DHT22;2760;50.000;9.194;2024-02-21T11:44:29;14.40;99.90
5476;DHT22;2760;50.000;9.194;2024-02-21T11:46:57;13.10;99.90
5476;DHT22;2760;50.000;9.194;2024-02-21T11:49:27;13.70;99.90
5476;DHT22;2760;50.000;9.194;2024-02-21T11:52:02;12.90;99.90
5476;DHT22;2760;50.000;9.194;2024-02-21T11:54:30;13.20;99.90
5476;DHT22;2760;50.000;9.194;2024-02-21T11:56:58;13.10;99.90
5476;DHT22;2760;50.000;9.194;2024-02-21T11:59:25;13.30;99.90
5476;DHT22;2760;50.000;9.194;2024-02-21T12:01:53;13.50;99.90
5476;DHT22;2760;50.000;9.194;2024-02-21T12:04:23;13.70;99.90
5476;DHT22;2760;50.000;9.194;2024-02-21T12:06:53;13.60;99.90
5476;DHT22;2760;50.000;9.194;2024-02-21T12:09:22;15.00;99.90
5476;DHT22;2760;50.000;9.194;2024-02-21T12:11:57;13.50;99.90
5476;DHT22;2760;50.000;9.194;2024-02-21T12:14:25;12.90;99.90
5476;DHT22;2760;50.000;9.194;2024-02-21T12:16:54;13.70;99.90
5476;DHT22;2760;50.000;9.194;2024-02-21T12:19:24;12.80;99.90
5476;DHT22;2760;50.000;9.194;2024-02-21T12:21:52;14.70;99.90
5476;DHT22;2760;50.000;9.194;2024-02-21T12:24:23;12.80;99.90
5476;DHT22;2760;50.000;9.194;2024-02-21T12:26:53;13.80;99.90
5476;DHT22;2760;50.000;9.194;2024-02-21T12:29:22;13.00;99.90
5476;DHT22;2760;50.000;9.194;2024-02-21T12:31:52;14.80;99.90
5476;DHT22;2760;50.000;9.194;2024-02-21T12:34:22;12.90;99.90
5476;DHT22;2760;50.000;9.194;2024-02-21T12:36:50;15.00;99.90
5476;DHT22;2760;50.000;9.194;2024-02-21T12:39:17;13.10;99.90
5476;DHT22;2760;50.000;9.194;2024-02-21T12:41:48;13.20;99.90
5476;DHT22;2760;50.000;9.194;2024-02-21T12:44:16;13.20;99.90
5476;DHT22;2760;50.000;9.194;2024-02-21T12:46:43;13.00;99.90
5476;DHT22;2760;50.000;9.194;2024-02-21T12:49:10;14.30;99.90
5476;DHT22;2760;50.000;9.194;2024-02-21T12:51:37;13.00;99.90
5476;DHT22;2760;50.000;9.194;2024-02-21T12:54:07;13.00;99.90
5476;DHT22;2760;50.000;9.194;2024-02-21T12:56:36;14.20;99.90
5476;DHT22;2760;50.000;9.194;2024-02-21T12:59:08;12.90;99.90
5476;DHT22;2760;50.000;9.194;2024-02-21T13:01:36;12.80;99.90
5476;DHT22;2760;50.000;9.194;2024-02-21T13:04:08;13.70;99.90
5476;DHT22;2760;50.000;9.194;2024-02-21T13:06:39;13.00;99.90
5476;DHT22;2760;50.000;9.194;2024-02-21T13:09:10;13.10;99.90
5476;DHT22;2760;50.000;9.194;2024-02-21T13:11:37;13.30;99.90
5476;DHT22;2760;50.000;9.194;2024-02-21T13:14:07;13.30;99.90
5476;DHT22;2760;50.000;9.194;2024-02-21T13:16:35;12.90;99.90
5476;DHT22;2760;50.000;9.194;2024-02-21T13:19:05;13.20;99.90
5476;DHT22;2760;50.000;9.194;2024-02-21T13:21:32;13.10;99.90
5476;DHT22;2760;50.000;9.194;2024-02-21T13:24:01;13.10;99.90
5476;DHT22;2760;50.000;9.194;2024-02-21T13:26:28;12.70;99.90
5476;DHT22;2760;50.000;9.194;2024-02-21T13:28:55;13.40;99.90
5476;DHT22;2760;50.000;9.194;2024-02-21T13:31:25;12.60;99.90
5476;DHT22;2760;50.000;9.194;2024-02-21T13:33:52;15.00;99.90
5476;DHT22;2760;50.000;9.194;2024-02-21T13:36:20;13.10;99.90
5476;DHT22;2760;50.000;9.194;2024-02-21T13:38:49;13.00;99.90
5476;DHT22;2760;50.000;9.194;2024-02-21T13:41:18;12.70;99.90
5476;DHT22;2760;50.000;9.194;2024-02-21T13:43:47;12.60;99.90
5476;DHT22;2760;50.000;9.194;2024-02-21T13:46:15;12.40;99.90
5476;DHT22;2760;50.000;9.194;2024-02-21T13:48:44;12.20;99.90
5476;DHT22;2760;50.000;9.194;2024-02-21T13:51:12;12.40;99.90
5476;DHT22;2760;50.000;9.194;2024-02-21T13:53:40;12.60;99.90
5476;DHT22;2760;50.000;9.194;2024-02-21T13:56:07;11.70;99.90
5476;DHT22;2760;50.000;9.194;2024-02-21T13:58:35;12.60;99.90
5476;DHT22;2760;50.000;9.194;2024-02-21T14:01:06;13.50;99.90
5476;DHT22;2760;50.000;9.194;2024-02-21T14:03:35;13.40;99.90
5476;DHT22;2760;50.000;9.194;2024-02-21T14:06:04;13.50;99.90
5476;DHT22;2760;50.000;9.194;2024-02-21T14:08:32;12.10;99.90
5476;DHT22;2760;50.000;9.194;2024-02-21T14:11:00;12.20;99.90
5476;DHT22;2760;50.000;9.194;2024-02-21T14:13:27;12.20;99.90
5476;DHT22;2760;50.000;9.194;2024-02-21T14:15:54;14.20;99.90
5476;DHT22;2760;50.000;9.194;2024-02-21T14:18:22;13.40;99.90
5476;DHT22;2760;50.000;9.194;2024-02-21T14:20:49;13.50;99.90
5476;DHT22;2760;50.000;9.194;2024-02-21T14:23:23;12.50;99.90
5476;DHT22;2760;50.000;9.194;2024-02-21T14:25:50;13.30;99.90
5476;DHT22;2760;50.000;9.194;2024-02-21T14:28:17;12.60;99.90
5476;DHT22;2760;50.000;9.194;2024-02-21T14:30:59;13.20;99.90
5476;DHT22;2760;50.000;9.194;2024-02-21T14:33:42;12.40;99.90
5476;DHT22;2760;50.000;9.194;2024-02-21T14:36:12;12.30;99.90
5476;DHT22;2760;50.000;9.194;2024-02-21T14:38:45;14.30;99.90
5476;DHT22;2760;50.000;9.194;2024-02-21T14:41:26;12.50;99.90
5476;DHT22;2760;50.000;9.194;2024-02-21T14:43:55;12.90;99.90
5476;DHT22;2760;50.000;9.194;2024-02-21T14:46:28;13.00;99.90
5476;DHT22;2760;50.000;9.194;2024-02-21T14:48:55;10.40;99.90
5476;DHT22;2760;50.000;9.194;2024-02-21T14:51:23;14.20;99.90
5476;DHT22;2760;50.000;9.194;2024-02-21T14:53:55;13.70;99.90
5476;DHT22;2760;50.000;9.194;2024-02-21T14:56:23;12.80;99.90
5476;DHT22;2760;50.000;9.194;2024-02-21T14:58:51;13.20;99.90
5476;DHT22;2760;50.000;9.194;2024-02-21T15:01:18;13.60;99.90
5476;DHT22;2760;50.000;9.194;2024-02-21T15:03:45;13.60;99.90
5476;DHT22;2760;50.000;9.194;2024-02-21T15:06:13;12.40;99.90
5476;DHT22;2760;50.000;9.194;2024-02-21T15:08:40;13.50;99.90
5476;DHT22;2760;50.000;9.194;2024-02-21T15:11:09;12.40;99.90
5476;DHT22;2760;50.000;9.194;2024-02-21T15:13:37;12.40;99.90
5476;DHT22;2760;50.000;9.194;2024-02-21T15:16:05;11.30;99.90
5476;DHT22;2760;50.000;9.194;2024-02-21T15:18:32;12.30;99.90
5476;DHT22;2760;50.000;9.194;2024-02-21T15:21:03;13.60;99.90
5476;DHT22;2760;50.000;9.194;2024-02-21T15:23:31;10.70;99.90
5476;DHT22;2760;50.000;9.194;2024-02-21T15:25:58;12.20;99.90
5476;DHT22;2760;50.000;9.194;2024-02-21T15:28:28;12.70;99.90
5476;DHT22;2760;50.000;9.194;2024-02-21T15:30:56;12.40;99.90
5476;DHT22;2760;50.000;9.194;2024-02-21T15:33:23;14.30;99.90
5476;DHT22;2760;50.000;9.194;2024-02-21T15:35:51;12.40;99.90
5476;DHT22;2760;50.000;9.194;2024-02-21T15:38:19;10.90;99.90
5476;DHT22;2760;50.000;9.194;2024-02-21T15:40:46;13.70;99.90
5476;DHT22;2760;50.000;9.194;2024-02-21T15:43:17;12.50;99.90
5476;DHT22;2760;50.000;9.194;2024-02-21T15:45:46;12.70;99.90
5476;DHT22;2760;50.000;9.194;2024-02-21T15:48:13;13.90;99.90
5476;DHT22;2760;50.000;9.194;2024-02-21T15:50:41;12.90;99.90
5476;DHT22;2760;50.000;9.194;2024-02-21T15:53:09;12.00;99.90
5476;DHT22;2760;50.000;9.194;2024-02-21T15:55:36;13.00;99.90
5476;DHT22;2760;50.000;9.194;2024-02-21T15:58:17;12.10;99.90
5476;DHT22;2760;50.000;9.194;2024-02-21T16:00:52;14.00;99.90
5476;DHT22;2760;50.000;9.194;2024-02-21T16:03:20;12.50;99.90
5476;DHT22;2760;50.000;9.194;2024-02-21T16:06:02;12.50;99.90
5476;DHT22;2760;50.000;9.194;2024-02-21T16:08:29;12.00;99.90
5476;DHT22;2760;50.000;9.194;2024-02-21T16:10:59;12.00;99.90
5476;DHT22;2760;50.000;9.194;2024-02-21T16:13:27;12.00;99.90
5476;DHT22;2760;50.000;9.194;2024-02-21T16:15:59;12.00;99.90
5476;DHT22;2760;50.000;9.194;2024-02-21T16:18:26;13.50;99.90
5476;DHT22;2760;50.000;9.194;2024-02-21T16:20:53;11.80;99.90